CDT,Max TemperatureF,Mean TemperatureF,Min TemperatureF,Max Dew PointF,MeanDew PointF,Min DewpointF,Max Humidity, Mean Humidity, Min Humidity, Max Sea Level PressureIn, Mean Sea Level PressureIn, Min Sea Level PressureIn, Max VisibilityMiles, Mean VisibilityMiles, Min VisibilityMiles, Max Wind SpeedMPH, Mean Wind SpeedMPH, Max Gust SpeedMPH,PrecipitationIn, CloudCover, Events, WindDirDegrees
2013-5-1,68,55,42,45,41,34,93,60,40,30.32,30.20,30.09,10,10,10,21,11,29,0.00,6,,336
2013-5-2,39,38,35,37,35,32,93,87,75,30.38,30.34,30.31,10,10,2,17,13,23,0.00,8,Rain,349
2013-5-3,41,36,32,41,38,32,100,97,87,30.23,30.10,30.05,10,8,4,13,7,,0.46,8,Rain,13
2013-5-4,71,56,41,54,46,41,100,85,49,30.09,30.04,30.01,10,8,2,13,4,,0.03,7,Rain,14
2013-5-5,74,57,39,47,43,39,100,80,27,30.11,30.07,30.02,10,7,1,8,5,,0.00,2,,310
2013-5-6,76,56,35,48,40,36,100,83,22,30.12,30.06,30.01,10,4,0,8,1,,0.00,2,Fog,293
2013-5-7,79,61,44,46,39,32,100,46,18,30.08,30.02,29.98,10,10,10,13,4,,0.00,2,,128
2013-5-8,80,60,39,52,43,39,100,60,23,30.04,29.99,29.96,10,10,8,9,2,,0.00,3,,154
2013-5-9,61,54,48,59,53,48,100,92,71,29.98,29.96,29.93,10,8,3,14,6,21,0.10,7,Rain,353
2013-5-10,62,50,41,46,44,39,100,78,55,30.04,29.98,29.91,10,10,10,12,7,22,0.04,5,Rain,8
2013-5-11,54,46,41,47,32,23,100,58,33,30.10,29.96,29.80,10,10,6,25,14,36,0.01,4,Rain,310
2013-5-12,55,42,28,26,22,17,86,44,23,30.17,30.11,30.06,10,10,10,20,12,30,0.00,1,,313
2013-5-13,65,43,24,36,28,23,96,52,26,30.19,30.06,29.82,10,10,10,9,3,,0.00,3,,162
2013-5-14,88,72,56,55,48,38,67,40,23,29.79,29.64,29.49,10,10,10,15,9,28,0.00,2,Rain-Thunderstorm,203
2013-5-15,75,65,55,48,42,37,70,43,25,29.88,29.80,29.60,10,10,10,17,11,21,0.00,2,Rain,293
2013-5-16,83,63,44,54,46,41,100,57,25,29.98,29.91,29.87,10,10,8,22,3,26,0.00,2,,71
2013-5-17,59,54,48,55,47,35,100,81,42,30.10,30.06,29.98,10,9,5,15,9,24,0.11,5,Rain,97
2013-5-18,78,63,48,64,58,48,98,78,60,30.09,30.00,29.91,10,10,10,12,5,,0.00,3,Rain,118
2013-5-19,84,70,57,64,61,56,100,79,47,29.92,29.81,29.62,10,8,2,23,8,32,0.04,2,Rain,133
2013-5-20,81,70,60,64,61,57,100,86,45,29.79,29.67,29.58,10,9,1,28,10,33,0.45,5,Rain-Thunderstorm,166
2013-5-21,71,62,51,64,58,52,100,91,60,29.71,29.62,29.57,10,6,0,20,7,23,0.20,4,Fog-Rain-Thunderstorm,171
2013-5-22,60,56,51,61,55,52,100,100,88,29.88,29.71,29.65,10,6,0,12,3,,0.13,7,Fog-Rain,351
2013-5-23,63,54,46,52,46,31,100,82,34,30.34,30.03,29.86,10,10,7,17,8,22,0.20,5,Rain,9
2013-5-24,65,48,31,46,35,31,100,84,34,30.47,30.38,30.31,10,5,0,10,2,,0.00,1,Fog,225
2013-5-25,61,54,46,47,42,34,93,68,39,30.38,30.33,30.29,10,10,6,10,6,,0.00,5,Rain,130
2013-5-26,63,53,43,52,44,37,91,69,44,30.31,30.24,30.17,10,10,10,16,7,21,0.04,5,Rain,122
2013-5-27,56,52,50,55,52,41,100,95,61,30.07,29.94,29.89,10,8,2,21,12,25,0.40,8,Rain,100
2013-5-28,62,56,50,61,54,50,100,99,94,29.89,29.80,29.72,10,5,1,10,7,,0.01,8,,101
2013-5-29,83,68,55,68,61,55,100,93,52,29.87,29.82,29.78,10,4,0,31,4,41,0.14,6,Fog-Rain-Thunderstorm,146
2013-5-30,79,70,62,70,65,60,100,90,65,29.83,29.75,29.63,10,9,2,17,10,29,0.11,5,Rain-Thunderstorm,145
2013-5-31,80,70,62,63,60,57,89,78,47,29.73,29.69,29.64,10,10,10,18,10,29,0.00,5,,172